createdAt,value
2023-05-22T13:25:31.344Z,29.00
2023-05-22T13:27:59.512Z,29.07
2023-05-22T13:30:26.404Z,29.32
2023-05-22T13:32:53.187Z,29.42
2023-05-22T13:35:19.803Z,29.46
2023-05-22T13:37:46.802Z,29.49
2023-05-22T13:40:14.585Z,29.75
2023-05-22T13:42:41.352Z,29.90
2023-05-22T13:45:08.646Z,29.98
2023-05-22T13:47:35.504Z,29.87
2023-05-22T13:50:02.196Z,29.82
2023-05-22T13:52:28.908Z,29.69
2023-05-22T13:54:56.172Z,29.85
2023-05-22T13:57:22.758Z,29.95
2023-05-22T13:59:49.424Z,30.12
2023-05-22T14:02:16.022Z,30.27
2023-05-22T14:04:42.673Z,30.28
2023-05-22T14:07:09.248Z,30.34
2023-05-22T14:09:35.895Z,30.43
2023-05-22T14:12:02.720Z,30.80
2023-05-22T14:14:29.266Z,30.53
2023-05-22T14:16:55.920Z,29.99
2023-05-22T14:19:22.618Z,29.65
2023-05-22T14:21:50.875Z,29.96
2023-05-22T14:24:18.020Z,30.15
2023-05-22T14:26:44.892Z,30.32
2023-05-22T14:29:11.954Z,30.59
2023-05-22T14:31:51.783Z,30.40
2023-05-22T14:34:18.889Z,30.20
2023-05-22T14:36:46.100Z,29.75
2023-05-22T14:39:12.674Z,29.70
2023-05-22T14:41:39.349Z,30.15
2023-05-22T14:44:06.116Z,30.43
2023-05-22T14:46:32.764Z,30.62
2023-05-22T14:48:59.338Z,30.18
2023-05-22T14:51:25.998Z,29.82
2023-05-22T14:53:52.836Z,30.22
2023-05-22T14:56:19.488Z,30.45
2023-05-22T14:58:46.073Z,30.20
2023-05-22T15:01:12.656Z,30.65
2023-05-22T15:03:39.292Z,31.20
2023-05-22T15:06:06.111Z,31.48
2023-05-22T15:08:32.718Z,31.75
2023-05-22T15:10:59.392Z,31.89
2023-05-22T15:13:26.019Z,31.92
2023-05-22T15:15:52.753Z,32.04
2023-05-22T15:18:20.127Z,32.04
2023-05-22T15:20:46.777Z,32.29
2023-05-22T15:23:13.797Z,32.43
2023-05-22T15:25:41.109Z,32.54
2023-05-22T15:28:07.990Z,32.55
2023-05-22T15:30:38.885Z,32.64
2023-05-22T15:33:05.763Z,32.54
2023-05-22T15:35:32.402Z,32.39
2023-05-22T15:37:59.271Z,31.95
2023-05-22T15:40:26.084Z,31.83
2023-05-22T15:42:53.458Z,31.73
2023-05-22T15:45:20.587Z,31.86
2023-05-22T15:47:47.930Z,31.85
2023-05-22T15:50:14.656Z,31.80
2023-05-22T15:52:41.225Z,31.70
2023-05-22T15:55:08.172Z,31.78
2023-05-22T15:57:34.816Z,31.63
2023-05-22T16:00:01.451Z,31.48
2023-05-22T16:02:28.153Z,31.41
2023-05-22T16:04:54.778Z,31.38
2023-05-22T16:07:21.427Z,31.18
2023-05-22T16:09:50.157Z,31.05
2023-05-22T16:12:16.984Z,30.99
2023-05-22T16:14:43.568Z,31.01
2023-05-22T16:17:10.161Z,31.09
2023-05-22T16:19:36.837Z,31.02
2023-05-22T16:22:03.658Z,31.01
2023-05-22T16:24:30.286Z,31.21
2023-05-22T16:26:59.225Z,31.40
2023-05-22T16:29:25.852Z,31.58
2023-05-22T16:31:52.463Z,31.71
2023-05-22T16:34:19.195Z,31.77
2023-05-22T16:36:45.936Z,31.66
2023-05-22T16:39:12.741Z,31.53
2023-05-22T16:41:39.338Z,31.37
2023-05-22T16:44:05.944Z,31.35
2023-05-22T16:46:32.582Z,31.34
2023-05-22T16:48:59.232Z,31.44
2023-05-22T16:51:25.814Z,31.11
2023-05-22T16:53:52.381Z,30.65
2023-05-22T16:56:20.753Z,30.53
2023-05-22T16:58:47.808Z,30.71
2023-05-22T17:01:14.569Z,30.80
2023-05-22T17:03:41.260Z,30.80
2023-05-22T17:06:09.022Z,30.56
2023-05-22T17:08:35.701Z,30.33
2023-05-22T17:11:02.333Z,30.13
2023-05-22T17:13:28.905Z,30.00
2023-05-22T17:15:55.700Z,30.10
2023-05-22T17:18:22.330Z,30.09
2023-05-22T17:20:49.853Z,29.93
2023-05-22T17:23:17.295Z,29.73
2023-05-22T17:25:46.593Z,29.18
2023-05-22T17:28:14.532Z,28.59
2023-05-22T17:30:42.757Z,28.05
2023-05-22T17:33:10.245Z,27.77
2023-05-22T17:35:36.866Z,27.39
2023-05-22T17:38:03.563Z,27.11
2023-05-22T17:40:44.047Z,26.94
2023-05-22T17:43:12.520Z,26.70
2023-05-22T17:45:39.642Z,26.48
2023-05-22T17:48:07.659Z,26.33
2023-05-22T17:50:34.358Z,26.20
2023-05-22T17:53:00.924Z,26.01
2023-05-22T17:55:27.512Z,25.79
2023-05-22T17:57:54.269Z,25.51
2023-05-22T18:00:20.934Z,25.27
2023-05-22T18:02:47.762Z,25.15
2023-05-22T18:05:14.520Z,24.98
2023-05-22T18:07:41.245Z,24.91
2023-05-22T18:10:08.303Z,24.77
2023-05-22T18:12:37.308Z,24.68
2023-05-22T18:15:05.128Z,24.56
2023-05-22T18:17:32.560Z,24.41
2023-05-22T18:20:01.019Z,24.26
2023-05-22T18:22:27.567Z,24.13
2023-05-22T18:24:54.149Z,24.00
2023-05-22T18:27:20.808Z,23.91
2023-05-22T18:29:47.320Z,23.79
2023-05-22T18:32:13.901Z,23.64
2023-05-22T18:34:41.109Z,23.58
2023-05-22T18:37:07.758Z,23.53
2023-05-22T18:39:34.321Z,23.39
2023-05-22T18:42:01.152Z,23.19
2023-05-22T18:44:27.813Z,23.07
2023-05-22T18:46:54.493Z,22.99
2023-05-22T18:49:21.288Z,22.96
2023-05-22T18:51:47.927Z,22.90
2023-05-22T18:54:14.522Z,22.84
2023-05-22T18:56:41.131Z,22.73
2023-05-22T18:59:07.793Z,22.58
2023-05-22T19:01:34.427Z,22.46
2023-05-22T19:04:01.079Z,22.40
2023-05-22T19:06:29.002Z,22.36
2023-05-22T19:08:55.565Z,22.34
2023-05-22T19:11:22.095Z,22.28
2023-05-22T19:13:48.648Z,22.19
2023-05-22T19:16:15.368Z,22.14
2023-05-22T19:18:42.177Z,22.04
2023-05-22T19:21:08.867Z,21.93
2023-05-22T19:23:36.653Z,21.80
2023-05-22T19:26:03.483Z,21.74
2023-05-22T19:28:32.296Z,21.67
2023-05-22T19:31:00.084Z,21.62
2023-05-22T19:33:27.651Z,21.56
2023-05-22T19:35:54.250Z,21.51
2023-05-22T19:38:20.884Z,21.46
2023-05-22T19:40:47.456Z,21.41
2023-05-22T19:43:14.460Z,21.31
2023-05-22T19:45:41.070Z,21.25
2023-05-22T19:48:07.838Z,21.17
2023-05-22T19:50:35.543Z,21.14
2023-05-22T19:53:02.482Z,21.09
2023-05-22T19:55:29.248Z,21.07
2023-05-22T19:57:56.052Z,21.07
2023-05-22T20:00:22.854Z,21.06
2023-05-22T20:02:50.066Z,21.00
2023-05-22T20:05:17.047Z,20.97
2023-05-22T20:07:43.648Z,20.96
2023-05-22T20:10:11.284Z,20.95
2023-05-22T20:12:38.168Z,20.90
2023-05-22T20:15:06.947Z,20.86
2023-05-22T20:17:34.519Z,20.83
2023-05-22T20:20:01.148Z,20.80
2023-05-22T20:22:27.963Z,20.72
2023-05-22T20:24:54.578Z,20.68
2023-05-22T20:27:21.243Z,20.66
2023-05-22T20:29:49.942Z,20.60
2023-05-22T20:32:17.017Z,20.56
2023-05-22T20:34:45.161Z,20.54
2023-05-22T20:37:13.653Z,20.53
2023-05-22T20:39:43.231Z,20.52
2023-05-22T20:42:11.645Z,20.49
2023-05-22T20:44:38.401Z,20.46
2023-05-22T20:47:05.940Z,20.46
2023-05-22T20:49:34.765Z,20.39
2023-05-22T20:52:02.784Z,20.35
2023-05-22T20:54:34.085Z,20.30
2023-05-22T20:57:01.527Z,20.26
2023-05-22T20:59:31.080Z,20.19
2023-05-22T21:01:57.970Z,20.12
2023-05-22T21:04:24.757Z,20.05
2023-05-22T21:06:51.472Z,19.99
2023-05-22T21:09:18.208Z,19.91
2023-05-22T21:11:44.863Z,19.82
2023-05-22T21:14:11.546Z,19.77
2023-05-22T21:16:39.572Z,19.71
2023-05-22T21:19:07.263Z,19.65
2023-05-22T21:21:36.224Z,19.62
2023-05-22T21:24:02.903Z,19.57
2023-05-22T21:26:29.562Z,19.53
2023-05-22T21:28:56.359Z,19.48
2023-05-22T21:31:23.030Z,19.46
2023-05-22T21:33:49.659Z,19.41
2023-05-22T21:36:16.275Z,19.33
2023-05-22T21:38:42.870Z,19.33
2023-05-22T21:41:09.384Z,19.31
2023-05-22T21:43:35.960Z,19.27
2023-05-22T21:46:02.582Z,19.22
2023-05-22T21:48:29.228Z,19.18
2023-05-22T21:50:56.097Z,19.14
2023-05-22T21:53:23.044Z,19.08
2023-05-22T21:55:49.875Z,19.03
2023-05-22T21:58:16.435Z,18.97
2023-05-22T22:00:42.992Z,18.93
2023-05-22T22:03:09.736Z,18.92
2023-05-22T22:05:36.802Z,18.93
2023-05-22T22:08:03.366Z,18.91
2023-05-22T22:10:29.893Z,18.88
2023-05-22T22:12:56.458Z,18.85
2023-05-22T22:15:23.152Z,18.80
2023-05-22T22:17:50.274Z,18.79
2023-05-22T22:20:18.659Z,18.80
2023-05-22T22:22:47.134Z,18.78
2023-05-22T22:25:13.732Z,18.76
2023-05-22T22:27:40.712Z,18.77
2023-05-22T22:30:08.200Z,18.79
2023-05-22T22:32:34.769Z,18.76
2023-05-22T22:35:01.628Z,18.77
2023-05-22T22:37:28.453Z,18.76
2023-05-22T22:39:55.297Z,18.76
2023-05-22T22:42:21.997Z,18.77
2023-05-22T22:44:48.554Z,18.77
2023-05-22T22:47:15.122Z,18.75
2023-05-22T22:49:42.427Z,18.73
2023-05-22T22:52:09.027Z,18.73
2023-05-22T22:54:35.813Z,18.72
2023-05-22T22:57:02.478Z,18.67
2023-05-22T22:59:29.211Z,18.67
2023-05-22T23:01:55.917Z,18.67
2023-05-22T23:04:22.611Z,18.67
2023-05-22T23:06:49.237Z,18.67
2023-05-22T23:09:15.777Z,18.69
2023-05-22T23:11:42.337Z,18.69
2023-05-22T23:14:09.758Z,18.68
2023-05-22T23:16:37.820Z,18.68
2023-05-22T23:19:05.152Z,18.69
2023-05-22T23:21:32.653Z,18.68
2023-05-22T23:24:00.451Z,18.68
2023-05-22T23:26:28.102Z,18.67
2023-05-22T23:28:54.677Z,18.65
2023-05-22T23:31:26.265Z,18.57
2023-05-22T23:33:53.237Z,18.52
2023-05-22T23:36:19.858Z,18.49
2023-05-22T23:38:46.930Z,18.47
2023-05-22T23:41:19.873Z,18.43
2023-05-22T23:43:47.128Z,18.39
2023-05-22T23:46:14.186Z,18.34
2023-05-22T23:48:42.091Z,18.29
2023-05-22T23:51:14.311Z,18.25
2023-05-22T23:53:42.298Z,18.17
2023-05-22T23:56:09.393Z,18.14
2023-05-22T23:58:37.484Z,18.13
